createdAt,value
2018-02-18T00:00:07.547Z,1021.47
2018-02-18T00:01:17.270Z,1021.46
2018-02-18T00:02:27.241Z,1021.46
2018-02-18T00:03:37.231Z,1021.51
2018-02-18T00:04:46.942Z,1021.47
2018-02-18T00:05:56.662Z,1021.55
2018-02-18T00:07:06.632Z,1021.56
2018-02-18T00:08:16.354Z,1021.53
2018-02-18T00:09:26.093Z,1021.54
2018-02-18T00:10:36.067Z,1021.53
2018-02-18T00:11:45.782Z,1021.55
2018-02-18T00:12:55.775Z,1021.55
2018-02-18T00:14:05.736Z,1021.59
2018-02-18T00:15:15.191Z,1021.57
2018-02-18T00:16:25.142Z,1021.6
2018-02-18T00:17:35.142Z,1021.58
2018-02-18T00:18:44.854Z,1021.64
2018-02-18T00:19:54.300Z,1021.67
2018-02-18T00:21:04.009Z,1021.66
2018-02-18T00:22:13.977Z,1021.67
2018-02-18T00:23:23.687Z,1021.71
2018-02-18T00:24:33.936Z,1021.7
2018-02-18T00:25:43.652Z,1021.73
2018-02-18T00:26:53.612Z,1021.76
2018-02-18T00:28:03.576Z,1021.73
2018-02-18T00:29:13.278Z,1021.75
2018-02-18T00:30:22.980Z,1021.76
2018-02-18T00:31:32.431Z,1021.79
2018-02-18T00:32:42.396Z,1021.78
2018-02-18T00:33:52.353Z,1021.84
2018-02-18T00:35:02.055Z,1021.8
2018-02-18T00:36:11.827Z,1021.81
2018-02-18T00:37:21.791Z,1021.81
2018-02-18T00:38:31.488Z,1021.8
2018-02-18T00:39:41.459Z,1021.83
2018-02-18T00:40:50.751Z,1021.84
2018-02-18T00:42:00.718Z,1021.87
2018-02-18T00:43:10.692Z,1021.83
2018-02-18T00:44:20.423Z,1021.82
2018-02-18T00:45:29.883Z,1021.83
2018-02-18T00:46:39.580Z,1021.86
2018-02-18T00:47:49.276Z,1021.84
2018-02-18T00:48:58.712Z,1021.88
2018-02-18T00:50:08.666Z,1021.87
2018-02-18T00:51:18.623Z,1021.89
2018-02-18T00:52:28.326Z,1021.86
2018-02-18T00:53:38.021Z,1021.9
2018-02-18T00:54:47.507Z,1021.92
2018-02-18T00:55:57.481Z,1021.91
2018-02-18T00:57:07.447Z,1021.89
2018-02-18T00:58:16.900Z,1021.89
2018-02-18T00:59:26.964Z,1021.9
2018-02-18T01:00:36.680Z,1021.95
2018-02-18T01:01:46.645Z,1021.95
2018-02-18T01:02:56.130Z,1021.94
2018-02-18T01:04:05.884Z,1021.92
2018-02-18T01:05:15.896Z,1021.94
2018-02-18T01:06:25.860Z,1021.93
2018-02-18T01:07:35.822Z,1021.97
2018-02-18T01:08:45.776Z,1021.96
2018-02-18T01:09:55.765Z,1021.97
2018-02-18T01:11:05.214Z,1021.94
2018-02-18T01:12:15.187Z,1021.97
2018-02-18T01:13:24.646Z,1021.95
2018-02-18T01:14:34.334Z,1022.06
2018-02-18T01:15:44.032Z,1022.04
2018-02-18T01:16:53.989Z,1022.06
2018-02-18T01:18:03.949Z,1022.08
2018-02-18T01:19:13.396Z,1022.07
2018-02-18T01:20:23.091Z,1022.08
2018-02-18T01:21:32.790Z,1022.07
2018-02-18T01:22:42.768Z,1022.09
2018-02-18T01:23:52.722Z,1022.05
2018-02-18T01:25:02.423Z,1022.06
2018-02-18T01:26:12.127Z,1022.06
2018-02-18T01:27:21.822Z,1022.1
2018-02-18T01:28:31.261Z,1022.08
2018-02-18T01:29:40.203Z,1022.06
2018-02-18T01:30:50.162Z,1022.1
2018-02-18T01:31:59.868Z,1022.05
2018-02-18T01:33:09.850Z,1022.04
2018-02-18T01:34:19.823Z,1022.01
2018-02-18T01:35:29.777Z,1022
2018-02-18T01:36:39.225Z,1022.04
2018-02-18T01:37:49.206Z,1022.1
2018-02-18T01:38:59.229Z,1022.1
2018-02-18T01:40:09.182Z,1022.1
2018-02-18T01:41:19.156Z,1022.1
2018-02-18T01:42:28.865Z,1022.1
2018-02-18T01:43:38.304Z,1022.11
2018-02-18T01:44:48.016Z,1022.12
2018-02-18T01:45:57.989Z,1022.14
2018-02-18T01:47:07.428Z,1022.12
2018-02-18T01:48:17.130Z,1022.12
2018-02-18T01:49:27.106Z,1022.13
2018-02-18T01:50:36.810Z,1022.13
2018-02-18T01:51:46.774Z,1022.16
2018-02-18T01:52:56.204Z,1022.17
2018-02-18T01:54:06.178Z,1022.12
2018-02-18T01:55:15.625Z,1022.15
2018-02-18T01:56:25.583Z,1022.14
2018-02-18T01:57:35.551Z,1022.17
2018-02-18T01:58:44.993Z,1022.14
2018-02-18T01:59:54.950Z,1022.17
2018-02-18T02:01:04.904Z,1022.18
2018-02-18T02:02:14.614Z,1022.19
2018-02-18T02:03:24.395Z,1022.22
2018-02-18T02:04:33.845Z,1022.2
2018-02-18T02:05:43.292Z,1022.19
2018-02-18T02:06:52.996Z,1022.22
2018-02-18T02:08:02.698Z,1022.22
2018-02-18T02:09:12.414Z,1022.24
2018-02-18T02:10:21.863Z,1022.23
2018-02-18T02:11:31.819Z,1022.23
2018-02-18T02:12:41.521Z,1022.19
2018-02-18T02:13:51.229Z,1022.25
2018-02-18T02:15:00.922Z,1022.23
2018-02-18T02:16:10.876Z,1022.24
2018-02-18T02:17:20.836Z,1022.23
2018-02-18T02:18:30.528Z,1022.25
2018-02-18T02:19:40.504Z,1022.2
2018-02-18T02:20:50.216Z,1022.27
2018-02-18T02:22:00.177Z,1022.23
2018-02-18T02:23:09.880Z,1022.21
2018-02-18T02:24:19.582Z,1022.28
2018-02-18T02:25:29.549Z,1022.24
2018-02-18T02:26:39.514Z,1022.28
2018-02-18T02:27:49.473Z,1022.27
2018-02-18T02:28:59.439Z,1022.38
2018-02-18T02:30:09.400Z,1022.34
2018-02-18T02:31:19.363Z,1022.35
2018-02-18T02:32:28.807Z,1022.37
2018-02-18T02:33:38.795Z,1022.36
2018-02-18T02:34:48.504Z,1022.34
2018-02-18T02:35:58.435Z,1022.39
2018-02-18T02:37:08.398Z,1022.39
2018-02-18T02:38:18.096Z,1022.38
2018-02-18T02:39:28.056Z,1022.39
2018-02-18T02:40:37.764Z,1022.36
2018-02-18T02:41:47.726Z,1022.4
2018-02-18T02:42:57.437Z,1022.4
2018-02-18T02:44:07.412Z,1022.41
2018-02-18T02:45:17.378Z,1022.41
2018-02-18T02:46:27.361Z,1022.41
2018-02-18T02:47:37.322Z,1022.4
2018-02-18T02:48:47.021Z,1022.38
2018-02-18T02:49:56.727Z,1022.4
2018-02-18T02:51:06.442Z,1022.39
2018-02-18T02:52:16.167Z,1022.44
2018-02-18T02:53:25.873Z,1022.47
2018-02-18T02:54:35.576Z,1022.41
2018-02-18T02:55:45.276Z,1022.41
2018-02-18T02:56:55.246Z,1022.38
2018-02-18T02:58:05.239Z,1022.39
2018-02-18T02:59:14.954Z,1022.32
2018-02-18T03:00:24.923Z,1022.36
2018-02-18T03:01:34.883Z,1022.4
2018-02-18T03:02:44.854Z,1022.43
2018-02-18T03:03:55.043Z,1022.46
2018-02-18T03:05:04.758Z,1022.49
2018-02-18T03:06:14.448Z,1022.47
2018-02-18T03:07:24.149Z,1022.47
2018-02-18T03:08:34.114Z,1022.44
2018-02-18T03:09:43.555Z,1022.48
2018-02-18T03:10:53.541Z,1022.49
2018-02-18T03:12:03.239Z,1022.48
2018-02-18T03:13:12.692Z,1022.54
2018-02-18T03:14:22.644Z,1022.5
2018-02-18T03:15:32.083Z,1022.52
2018-02-18T03:16:41.787Z,1022.51
2018-02-18T03:17:52.001Z,1022.53
2018-02-18T03:19:01.719Z,1022.5
2018-02-18T03:20:10.893Z,1022.53
2018-02-18T03:21:20.334Z,1022.54
2018-02-18T03:22:30.040Z,1022.49
2018-02-18T03:23:39.984Z,1022.47
2018-02-18T03:24:49.688Z,1022.51
2018-02-18T03:25:59.642Z,1022.46
2018-02-18T03:27:09.662Z,1022.44
2018-02-18T03:28:19.636Z,1022.45
2018-02-18T03:29:29.849Z,1022.47
2018-02-18T03:30:39.294Z,1022.48
2018-02-18T03:31:49.285Z,1022.47
2018-02-18T03:32:59.234Z,1022.46
2018-02-18T03:34:09.183Z,1022.45
2018-02-18T03:35:18.942Z,1022.4
2018-02-18T03:36:28.645Z,1022.41
2018-02-18T03:37:38.616Z,1022.4
2018-02-18T03:38:48.576Z,1022.36
2018-02-18T03:39:58.541Z,1022.37
2018-02-18T03:41:08.495Z,1022.39
2018-02-18T03:42:17.936Z,1022.39
2018-02-18T03:43:27.889Z,1022.37
2018-02-18T03:44:37.844Z,1022.39
2018-02-18T03:45:47.272Z,1022.37
2018-02-18T03:46:56.720Z,1022.35
2018-02-18T03:48:06.421Z,1022.42
2018-02-18T03:49:16.113Z,1022.33
2018-02-18T03:50:25.803Z,1022.35
2018-02-18T03:51:34.987Z,1022.34
2018-02-18T03:52:44.687Z,1022.35
2018-02-18T03:53:54.383Z,1022.4
2018-02-18T03:55:04.075Z,1022.38
2018-02-18T03:56:14.040Z,1022.43
2018-02-18T03:57:23.731Z,1022.42
2018-02-18T03:58:33.427Z,1022.43
2018-02-18T03:59:43.124Z,1022.45
2018-02-18T04:00:53.090Z,1022.42
2018-02-18T04:02:02.783Z,1022.43
2018-02-18T04:03:12.238Z,1022.45
2018-02-18T04:04:22.213Z,1022.42
2018-02-18T04:05:31.922Z,1022.46
2018-02-18T04:06:41.616Z,1022.49
2018-02-18T04:07:51.578Z,1022.45
2018-02-18T04:09:01.540Z,1022.47
2018-02-18T04:10:10.978Z,1022.49
2018-02-18T04:11:20.940Z,1022.49
2018-02-18T04:12:30.118Z,1022.47
2018-02-18T04:13:40.072Z,1022.48
2018-02-18T04:14:50.028Z,1022.47
2018-02-18T04:15:59.729Z,1022.48
2018-02-18T04:17:09.699Z,1022.51
2018-02-18T04:18:19.658Z,1022.53
2018-02-18T04:19:29.090Z,1022.57
2018-02-18T04:20:38.790Z,1022.57
2018-02-18T04:21:48.747Z,1022.6
2018-02-18T04:22:58.439Z,1022.58
2018-02-18T04:24:08.142Z,1022.53
2018-02-18T04:25:18.091Z,1022.54
2018-02-18T04:26:28.056Z,1022.58
2018-02-18T04:27:37.770Z,1022.57
2018-02-18T04:28:47.791Z,1022.58
2018-02-18T04:29:57.227Z,1022.61
2018-02-18T04:31:06.924Z,1022.52
2018-02-18T04:32:16.104Z,1022.56
2018-02-18T04:33:26.061Z,1022.58
2018-02-18T04:34:36.014Z,1022.6
2018-02-18T04:35:45.985Z,1022.65
2018-02-18T04:36:55.693Z,1022.6
2018-02-18T04:38:05.650Z,1022.61
2018-02-18T04:39:15.333Z,1022.59
2018-02-18T04:40:24.790Z,1022.62
2018-02-18T04:41:34.494Z,1022.62
2018-02-18T04:42:44.448Z,1022.6
2018-02-18T04:43:54.157Z,1022.59
2018-02-18T04:45:04.121Z,1022.58
2018-02-18T04:46:14.076Z,1022.63
2018-02-18T04:47:24.032Z,1022.63
2018-02-18T04:48:33.727Z,1022.65
2018-02-18T04:49:43.440Z,1022.64
2018-02-18T04:50:53.144Z,1022.64
2018-02-18T04:52:03.106Z,1022.67
2018-02-18T04:53:12.550Z,1022.7
2018-02-18T04:54:22.504Z,1022.72
2018-02-18T04:55:32.463Z,1022.73
2018-02-18T04:56:42.155Z,1022.75
2018-02-18T04:57:51.859Z,1022.77
2018-02-18T04:59:01.558Z,1022.75
2018-02-18T05:00:11.516Z,1022.78
2018-02-18T05:01:21.019Z,1022.79
2018-02-18T05:02:30.721Z,1022.83
2018-02-18T05:03:40.418Z,1022.8
2018-02-18T05:04:49.882Z,1022.85
2018-02-18T05:05:59.839Z,1022.82
2018-02-18T05:07:09.532Z,1022.86
2018-02-18T05:08:19.497Z,1022.9
2018-02-18T05:09:29.444Z,1022.85
2018-02-18T05:10:39.142Z,1022.88
2018-02-18T05:11:48.841Z,1022.91
2018-02-18T05:12:58.792Z,1022.95
2018-02-18T05:14:08.746Z,1022.92
2018-02-18T05:15:18.703Z,1022.96
2018-02-18T05:16:28.396Z,1022.97
2018-02-18T05:17:38.113Z,1022.99
2018-02-18T05:18:48.067Z,1023.02
2018-02-18T05:19:57.771Z,1023.04
2018-02-18T05:21:07.473Z,1023.07
2018-02-18T05:22:17.173Z,1023.04
2018-02-18T05:23:26.883Z,1023.11
2018-02-18T05:24:36.324Z,1023.14
2018-02-18T05:25:46.285Z,1023.14
2018-02-18T05:26:56.002Z,1023.13
2018-02-18T05:28:05.961Z,1023.15
2018-02-18T05:29:15.911Z,1023.14
2018-02-18T05:30:25.359Z,1023.11
2018-02-18T05:31:35.310Z,1023.16
2018-02-18T05:32:45.259Z,1023.17
2018-02-18T05:33:54.694Z,1023.16
2018-02-18T05:35:04.664Z,1023.18
2018-02-18T05:36:14.625Z,1023.15
2018-02-18T05:37:24.590Z,1023.19
2018-02-18T05:38:34.299Z,1023.17
2018-02-18T05:39:43.996Z,1023.2
2018-02-18T05:40:53.692Z,1023.23
2018-02-18T05:42:03.644Z,1023.25
2018-02-18T05:43:13.334Z,1023.3
2018-02-18T05:44:23.025Z,1023.29
2018-02-18T05:45:32.725Z,1023.26
2018-02-18T05:46:42.687Z,1023.26
2018-02-18T05:47:52.646Z,1023.28
2018-02-18T05:49:02.347Z,1023.31
2018-02-18T05:50:12.088Z,1023.35
2018-02-18T05:51:21.815Z,1023.33
2018-02-18T05:52:31.262Z,1023.34
2018-02-18T05:53:40.960Z,1023.35
2018-02-18T05:54:50.918Z,1023.4
2018-02-18T05:56:00.361Z,1023.34
2018-02-18T05:57:09.812Z,1023.37
2018-02-18T05:58:19.524Z,1023.42
2018-02-18T05:59:29.230Z,1023.41
2018-02-18T06:00:38.666Z,1023.42
2018-02-18T06:01:48.374Z,1023.41
2018-02-18T06:02:58.091Z,1023.45
2018-02-18T06:04:08.054Z,1023.43
2018-02-18T06:05:17.753Z,1023.46
2018-02-18T06:06:27.192Z,1023.47
2018-02-18T06:07:36.878Z,1023.49
2018-02-18T06:08:46.833Z,1023.49
2018-02-18T06:09:56.791Z,1023.53
2018-02-18T06:11:06.755Z,1023.47
2018-02-18T06:12:16.469Z,1023.52
2018-02-18T06:13:25.903Z,1023.53
2018-02-18T06:14:35.601Z,1023.53
2018-02-18T06:15:45.615Z,1023.55
2018-02-18T06:16:55.665Z,1023.6
2018-02-18T06:18:05.682Z,1023.62
2018-02-18T06:19:15.630Z,1023.64
2018-02-18T06:20:25.330Z,1023.62
2018-02-18T06:21:35.286Z,1023.63
2018-02-18T06:22:45.246Z,1023.66
2018-02-18T06:23:54.688Z,1023.64
2018-02-18T06:25:04.382Z,1023.63
2018-02-18T06:26:14.083Z,1023.66
2018-02-18T06:27:23.783Z,1023.65
2018-02-18T06:28:33.226Z,1023.6
2018-02-18T06:29:42.668Z,1023.62
2018-02-18T06:30:52.382Z,1023.63
2018-02-18T06:32:01.821Z,1023.6
2018-02-18T06:33:11.264Z,1023.6
2018-02-18T06:34:21.228Z,1023.62
2018-02-18T06:35:30.921Z,1023.6
2018-02-18T06:36:40.655Z,1023.64
2018-02-18T06:37:50.613Z,1023.63
2018-02-18T06:39:00.051Z,1023.64
2018-02-18T06:40:09.492Z,1023.66
2018-02-18T06:41:19.192Z,1023.68
2018-02-18T06:42:29.205Z,1023.67
2018-02-18T06:43:38.909Z,1023.7
2018-02-18T06:44:48.344Z,1023.69
2018-02-18T06:45:58.036Z,1023.71
2018-02-18T06:47:07.474Z,1023.74
2018-02-18T06:48:17.193Z,1023.77
2018-02-18T06:49:26.637Z,1023.76
2018-02-18T06:50:36.081Z,1023.77
2018-02-18T06:51:45.518Z,1023.77
2018-02-18T06:52:54.970Z,1023.81
2018-02-18T06:54:04.668Z,1023.8
2018-02-18T06:55:14.640Z,1023.84
2018-02-18T06:56:24.080Z,1023.86
2018-02-18T06:57:34.051Z,1023.88
2018-02-18T06:58:43.492Z,1023.9
2018-02-18T06:59:53.200Z,1023.92
2018-02-18T07:01:02.925Z,1023.93
2018-02-18T07:02:12.884Z,1023.95
2018-02-18T07:03:22.858Z,1023.95
2018-02-18T07:04:31.780Z,1023.96
2018-02-18T07:05:41.217Z,1023.96
2018-02-18T07:06:50.932Z,1023.94
2018-02-18T07:08:00.390Z,1023.94
2018-02-18T07:09:09.850Z,1023.94
2018-02-18T07:10:19.816Z,1023.96
2018-02-18T07:11:29.525Z,1023.91
2018-02-18T07:12:39.245Z,1023.91
2018-02-18T07:13:49.212Z,1023.93
2018-02-18T07:14:58.678Z,1023.96
2018-02-18T07:16:08.121Z,1023.97
2018-02-18T07:17:18.078Z,1023.94
2018-02-18T07:18:27.510Z,1023.95
2018-02-18T07:19:37.210Z,1023.96
2018-02-18T07:20:46.908Z,1023.93
2018-02-18T07:21:56.872Z,1023.93
2018-02-18T07:23:06.571Z,1023.91
2018-02-18T07:24:16.519Z,1023.91
2018-02-18T07:25:26.491Z,1023.87
2018-02-18T07:26:36.472Z,1023.86
2018-02-18T07:27:46.170Z,1023.86
2018-02-18T07:28:56.135Z,1023.87
2018-02-18T07:30:05.563Z,1023.85
2018-02-18T07:31:15.255Z,1023.91
2018-02-18T07:32:25.210Z,1023.85
2018-02-18T07:33:34.897Z,1023.88
2018-02-18T07:34:44.607Z,1023.91
2018-02-18T07:35:54.574Z,1023.89
2018-02-18T07:37:04.527Z,1023.88
2018-02-18T07:38:14.230Z,1023.88
2018-02-18T07:39:24.187Z,1023.91
2018-02-18T07:40:33.628Z,1023.87
2018-02-18T07:41:43.069Z,1023.94
2018-02-18T07:42:53.026Z,1023.93
2018-02-18T07:44:03.058Z,1023.91
2018-02-18T07:45:13.035Z,1023.9
2018-02-18T07:46:22.469Z,1023.9
2018-02-18T07:47:32.176Z,1023.9
2018-02-18T07:48:42.136Z,1023.91
2018-02-18T07:49:52.141Z,1023.88
2018-02-18T07:51:02.113Z,1023.91
2018-02-18T07:52:11.816Z,1023.94
2018-02-18T07:53:21.782Z,1023.89
2018-02-18T07:54:31.748Z,1023.93
2018-02-18T07:55:41.707Z,1023.96
2018-02-18T07:56:51.671Z,1023.93
2018-02-18T07:58:01.381Z,1023.96
2018-02-18T07:59:11.085Z,1023.91
2018-02-18T08:00:21.065Z,1023.96
2018-02-18T08:01:31.032Z,1023.98
2018-02-18T08:02:40.993Z,1023.92
2018-02-18T08:03:50.692Z,1023.95
2018-02-18T08:05:00.140Z,1023.96
2018-02-18T08:06:09.904Z,1024
2018-02-18T08:07:18.823Z,1023.96
2018-02-18T08:08:28.581Z,1023.98
2018-02-18T08:09:38.020Z,1023.94
2018-02-18T08:10:47.718Z,1023.99
2018-02-18T08:11:57.415Z,1023.99
2018-02-18T08:13:06.867Z,1024
2018-02-18T08:14:16.579Z,1023.99
2018-02-18T08:15:26.546Z,1024.01
2018-02-18T08:16:35.985Z,1024
2018-02-18T08:17:45.952Z,1023.98
2018-02-18T08:18:56.090Z,1023.97
2018-02-18T08:20:06.051Z,1024
2018-02-18T08:21:15.506Z,1024.03
2018-02-18T08:22:25.210Z,1024.1
2018-02-18T08:23:34.913Z,1024.1
2018-02-18T08:24:44.922Z,1024.09
2018-02-18T08:25:54.904Z,1024.14
2018-02-18T08:27:04.595Z,1024.13
2018-02-18T08:28:14.291Z,1024.12
2018-02-18T08:29:23.985Z,1024.1
2018-02-18T08:30:33.162Z,1024.08
2018-02-18T08:31:43.129Z,1024.07
2018-02-18T08:32:53.088Z,1024.03
2018-02-18T08:34:03.030Z,1024.03
2018-02-18T08:35:12.740Z,1024.03
2018-02-18T08:36:22.448Z,1024.03
2018-02-18T08:37:32.418Z,1024.02
2018-02-18T08:38:41.861Z,1024.02
2018-02-18T08:39:51.821Z,1024.04
2018-02-18T08:41:01.260Z,1024.06
2018-02-18T08:42:10.965Z,1024.07
2018-02-18T08:43:20.922Z,1024.05
2018-02-18T08:44:30.619Z,1024.05
2018-02-18T08:45:40.613Z,1024.04
2018-02-18T08:46:50.317Z,1024.04
2018-02-18T08:48:00.039Z,1024.03
2018-02-18T08:49:10.001Z,1024.03
2018-02-18T08:50:20.000Z,1024
2018-02-18T08:51:29.436Z,1024.02
2018-02-18T08:52:38.878Z,1024.02
2018-02-18T08:53:48.573Z,1023.95
2018-02-18T08:54:58.026Z,1024.02
2018-02-18T08:56:08.038Z,1024.05
2018-02-18T08:57:18.126Z,1024.02
2018-02-18T08:58:27.827Z,1024.01
2018-02-18T08:59:37.813Z,1024.04
2018-02-18T09:00:47.786Z,1024.05
2018-02-18T09:01:57.511Z,1024.06
2018-02-18T09:03:06.958Z,1024.08
2018-02-18T09:04:17.047Z,1024.05
2018-02-18T09:05:27.020Z,1024.08
2018-02-18T09:06:36.473Z,1024.07
2018-02-18T09:07:46.174Z,1024.04
2018-02-18T09:08:55.883Z,1024.06
2018-02-18T09:10:05.655Z,1024.08
2018-02-18T09:11:15.712Z,1024.11
2018-02-18T09:12:25.428Z,1024.12
2018-02-18T09:13:35.405Z,1024.12
2018-02-18T09:14:45.368Z,1024.15
2018-02-18T09:15:55.083Z,1024.16
2018-02-18T09:17:04.536Z,1024.2
2018-02-18T09:18:14.504Z,1024.17
2018-02-18T09:19:24.490Z,1024.18
2018-02-18T09:20:34.457Z,1024.18
2018-02-18T09:21:43.907Z,1024.2
2018-02-18T09:22:53.625Z,1024.22
2018-02-18T09:24:03.612Z,1024.22
2018-02-18T09:25:13.562Z,1024.17
2018-02-18T09:26:23.266Z,1024.17
2018-02-18T09:27:33.224Z,1024.17
2018-02-18T09:28:42.405Z,1024.18
2018-02-18T09:29:52.114Z,1024.16
2018-02-18T09:31:02.075Z,1024.17
2018-02-18T09:32:11.787Z,1024.19
2018-02-18T09:33:21.764Z,1024.17
2018-02-18T09:34:31.463Z,1024.24
2018-02-18T09:35:41.523Z,1024.19
2018-02-18T09:36:50.720Z,1024.2
2018-02-18T09:38:00.169Z,1024.2
2018-02-18T09:39:09.899Z,1024.16
2018-02-18T09:40:19.872Z,1024.2
2018-02-18T09:41:29.848Z,1024.19
2018-02-18T09:42:39.558Z,1024.22
2018-02-18T09:43:49.517Z,1024.21
2018-02-18T09:44:59.210Z,1024.19
2018-02-18T09:46:08.660Z,1024.18
2018-02-18T09:47:18.367Z,1024.19
2018-02-18T09:48:28.344Z,1024.18
2018-02-18T09:49:38.309Z,1024.21
2018-02-18T09:50:48.282Z,1024.16
2018-02-18T09:51:58.238Z,1024.18
2018-02-18T09:53:08.196Z,1024.22
2018-02-18T09:54:17.900Z,1024.16
2018-02-18T09:55:27.866Z,1024.15
2018-02-18T09:56:37.566Z,1024.17
2018-02-18T09:57:47.297Z,1024.15
2018-02-18T09:58:57.268Z,1024.18
2018-02-18T10:00:07.262Z,1024.16
2018-02-18T10:01:16.709Z,1024.17
2018-02-18T10:02:26.662Z,1024.17
2018-02-18T10:03:36.366Z,1024.22
2018-02-18T10:04:46.336Z,1024.22
2018-02-18T10:05:56.318Z,1024.21
2018-02-18T10:07:06.034Z,1024.22
2018-02-18T10:08:15.753Z,1024.23
2018-02-18T10:09:25.710Z,1024.21
2018-02-18T10:10:35.676Z,1024.26
2018-02-18T10:11:45.402Z,1024.27
2018-02-18T10:12:55.112Z,1024.28
2018-02-18T10:14:05.081Z,1024.28
2018-02-18T10:15:14.786Z,1024.28
2018-02-18T10:16:24.759Z,1024.28
2018-02-18T10:17:34.451Z,1024.3
2018-02-18T10:18:44.151Z,1024.33
2018-02-18T10:19:53.849Z,1024.31
2018-02-18T10:21:03.974Z,1024.32
2018-02-18T10:22:13.456Z,1024.32
2018-02-18T10:23:23.424Z,1024.32
2018-02-18T10:24:32.860Z,1024.35
2018-02-18T10:25:42.579Z,1024.3
2018-02-18T10:26:52.551Z,1024.31
2018-02-18T10:28:01.989Z,1024.32
2018-02-18T10:29:11.692Z,1024.29
2018-02-18T10:30:21.396Z,1024.29
2018-02-18T10:31:31.484Z,1024.32
2018-02-18T10:32:41.467Z,1024.36
2018-02-18T10:33:51.436Z,1024.32
2018-02-18T10:35:01.142Z,1024.37
2018-02-18T10:36:11.130Z,1024.36
2018-02-18T10:37:20.309Z,1024.35
2018-02-18T10:38:30.302Z,1024.34
2018-02-18T10:39:39.777Z,1024.33
2018-02-18T10:40:49.734Z,1024.31
2018-02-18T10:41:59.687Z,1024.36
2018-02-18T10:43:09.435Z,1024.35
2018-02-18T10:44:19.142Z,1024.38
2018-02-18T10:45:28.587Z,1024.36
2018-02-18T10:46:38.289Z,1024.44
2018-02-18T10:47:47.746Z,1024.4
2018-02-18T10:48:57.508Z,1024.37
2018-02-18T10:50:06.953Z,1024.4
2018-02-18T10:51:16.674Z,1024.41
2018-02-18T10:52:26.137Z,1024.43
2018-02-18T10:53:35.844Z,1024.39
2018-02-18T10:54:45.540Z,1024.36
2018-02-18T10:55:55.248Z,1024.39
2018-02-18T10:57:04.701Z,1024.4
2018-02-18T10:58:14.660Z,1024.39
2018-02-18T10:59:24.377Z,1024.42
2018-02-18T11:00:33.838Z,1024.4
2018-02-18T11:01:43.544Z,1024.41
2018-02-18T11:02:53.511Z,1024.41
2018-02-18T11:04:02.975Z,1024.4
2018-02-18T11:05:12.155Z,1024.37
2018-02-18T11:06:21.614Z,1024.36
2018-02-18T11:07:31.332Z,1024.42
2018-02-18T11:08:41.321Z,1024.37
2018-02-18T11:09:51.020Z,1024.34
2018-02-18T11:11:00.477Z,1024.31
2018-02-18T11:12:09.674Z,1024.26
2018-02-18T11:13:19.134Z,1024.29
2018-02-18T11:14:29.128Z,1024.3
2018-02-18T11:15:39.104Z,1024.27
2018-02-18T11:16:48.806Z,1024.24
2018-02-18T11:17:58.773Z,1024.25
2018-02-18T11:19:08.742Z,1024.24
2018-02-18T11:20:18.697Z,1024.26
2018-02-18T11:21:28.415Z,1024.25
2018-02-18T11:22:38.116Z,1024.26
2018-02-18T11:23:48.087Z,1024.2
2018-02-18T11:24:57.528Z,1024.17
2018-02-18T11:26:07.239Z,1024.19
2018-02-18T11:27:16.949Z,1024.14
2018-02-18T11:28:26.649Z,1024.14
2018-02-18T11:29:35.837Z,1024.1
2018-02-18T11:30:45.804Z,1024.12
2018-02-18T11:31:55.781Z,1024.14
2018-02-18T11:33:05.481Z,1024.1
2018-02-18T11:34:15.204Z,1024.09
2018-02-18T11:35:24.911Z,1024.08
2018-02-18T11:36:34.885Z,1024.07
2018-02-18T11:37:44.578Z,1024.07
2018-02-18T11:38:54.289Z,1024.05
2018-02-18T11:40:03.999Z,1024.05
2018-02-18T11:41:13.200Z,1024.06
2018-02-18T11:42:22.901Z,1024.07
2018-02-18T11:43:32.611Z,1024.02
2018-02-18T11:44:42.334Z,1024.04
2018-02-18T11:45:51.772Z,1024.08
2018-02-18T11:47:01.497Z,1024.04
2018-02-18T11:48:11.226Z,1024.08
2018-02-18T11:49:20.673Z,1024.12
2018-02-18T11:50:30.631Z,1024.09
2018-02-18T11:51:40.347Z,1024.11
2018-02-18T11:52:50.103Z,1024.08
2018-02-18T11:53:59.834Z,1024.11
2018-02-18T11:55:09.287Z,1024.07
2018-02-18T11:56:19.255Z,1024.13
2018-02-18T11:57:29.221Z,1024.15
2018-02-18T11:58:38.983Z,1024.14
2018-02-18T11:59:48.440Z,1024.1
2018-02-18T12:00:58.422Z,1024.11
2018-02-18T12:02:08.382Z,1024.11
2018-02-18T12:03:17.300Z,1024.08
2018-02-18T12:04:27.282Z,1024.11
2018-02-18T12:05:37.249Z,1024.11
2018-02-18T12:06:46.445Z,1024.11
2018-02-18T12:07:56.157Z,1024.14
2018-02-18T12:09:05.861Z,1024.11
2018-02-18T12:10:15.567Z,1024.12
2018-02-18T12:11:25.568Z,1024.1
2018-02-18T12:12:35.269Z,1024.12
2018-02-18T12:13:44.729Z,1024.15
2018-02-18T12:14:54.432Z,1024.12
2018-02-18T12:16:03.873Z,1024.11
2018-02-18T12:17:13.849Z,1024.1
2018-02-18T12:18:23.300Z,1024.09
2018-02-18T12:19:33.280Z,1024.13
2018-02-18T12:20:42.737Z,1024.13
2018-02-18T12:21:52.227Z,1024.14
2018-02-18T12:23:02.197Z,1024.13
2018-02-18T12:24:11.946Z,1024.11
2018-02-18T12:25:21.656Z,1024.05
2018-02-18T12:26:31.673Z,1024.03
2018-02-18T12:27:41.650Z,1024.06
2018-02-18T12:28:51.357Z,1023.98
2018-02-18T12:30:01.072Z,1023.97
2018-02-18T12:31:10.566Z,1024
2018-02-18T12:32:20.533Z,1024.02
2018-02-18T12:33:30.519Z,1024.03
2018-02-18T12:34:40.227Z,1023.99
2018-02-18T12:35:49.943Z,1024.01
2018-02-18T12:36:59.645Z,1023.95
2018-02-18T12:38:09.370Z,1023.96
2018-02-18T12:39:19.339Z,1023.95
2018-02-18T12:40:29.045Z,1023.92
2018-02-18T12:41:38.757Z,1023.89
2018-02-18T12:42:48.631Z,1023.89
2018-02-18T12:43:58.338Z,1023.84
2018-02-18T12:45:08.310Z,1023.85
2018-02-18T12:46:18.020Z,1023.85
2018-02-18T12:47:28.004Z,1023.82
2018-02-18T12:48:37.454Z,1023.81
2018-02-18T12:49:47.165Z,1023.83
2018-02-18T12:50:57.151Z,1023.82
2018-02-18T12:52:07.225Z,1023.8
2018-02-18T12:53:17.206Z,1023.78
2018-02-18T12:54:26.921Z,1023.82
2018-02-18T12:55:36.888Z,1023.8
2018-02-18T12:56:46.868Z,1023.79
2018-02-18T12:57:56.588Z,1023.78
2018-02-18T12:59:06.562Z,1023.78
2018-02-18T13:00:16.294Z,1023.82
2018-02-18T13:01:26.144Z,1023.78
2018-02-18T13:02:35.862Z,1023.83
2018-02-18T13:03:45.320Z,1023.78
2018-02-18T13:04:54.507Z,1023.76
2018-02-18T13:06:04.216Z,1023.77
2018-02-18T13:07:13.926Z,1023.74
2018-02-18T13:08:23.634Z,1023.74
2018-02-18T13:09:33.365Z,1023.78
2018-02-18T13:10:43.067Z,1023.72
2018-02-18T13:11:53.057Z,1023.76
2018-02-18T13:13:02.756Z,1023.74
2018-02-18T13:14:12.223Z,1023.72
2018-02-18T13:15:21.935Z,1023.73
2018-02-18T13:16:31.923Z,1023.74
2018-02-18T13:17:41.651Z,1023.74
2018-02-18T13:18:51.634Z,1023.74
2018-02-18T13:20:01.619Z,1023.69
2018-02-18T13:21:11.582Z,1023.65
2018-02-18T13:22:21.536Z,1023.64
2018-02-18T13:23:31.494Z,1023.65
2018-02-18T13:24:41.208Z,1023.68
2018-02-18T13:25:50.927Z,1023.64
2018-02-18T13:27:00.372Z,1023.65
2018-02-18T13:28:10.433Z,1023.61
2018-02-18T13:29:19.623Z,1023.59
2018-02-18T13:30:29.602Z,1023.6
2018-02-18T13:31:39.309Z,1023.58
2018-02-18T13:32:48.771Z,1023.59
2018-02-18T13:33:58.474Z,1023.58
2018-02-18T13:35:08.181Z,1023.57
2018-02-18T13:36:18.155Z,1023.56
2018-02-18T13:37:28.137Z,1023.55
2018-02-18T13:38:37.850Z,1023.57
2018-02-18T13:39:47.822Z,1023.56
2018-02-18T13:40:57.790Z,1023.6
2018-02-18T13:42:07.490Z,1023.54
2018-02-18T13:43:17.237Z,1023.54
2018-02-18T13:44:26.941Z,1023.53
2018-02-18T13:45:36.150Z,1023.55
2018-02-18T13:46:46.137Z,1023.55
2018-02-18T13:47:56.115Z,1023.58
2018-02-18T13:49:06.089Z,1023.55
2018-02-18T13:50:16.068Z,1023.51
2018-02-18T13:51:25.807Z,1023.47
2018-02-18T13:52:35.262Z,1023.49
2018-02-18T13:53:45.236Z,1023.47
2018-02-18T13:54:54.686Z,1023.45
2018-02-18T13:56:04.666Z,1023.38
2018-02-18T13:57:14.379Z,1023.43
2018-02-18T13:58:24.364Z,1023.41
2018-02-18T13:59:33.823Z,1023.44
2018-02-18T14:00:43.547Z,1023.43
2018-02-18T14:01:53.512Z,1023.4
2018-02-18T14:03:02.703Z,1023.43
2018-02-18T14:04:11.894Z,1023.39
2018-02-18T14:05:21.867Z,1023.37
2018-02-18T14:06:31.668Z,1023.35